DW5321 Paradera AW current weather conditions

sailwx.info

Wind from 293

Air temperature 25.0° C
Dewpoint 24.0° C

Last reported at 2016-Sep-30 00:50 UTC.
Time now 2016-Sep-30 01:35 UTC

Location: N 12°33' W 070°00'.
View on Google Maps.

See reports from other nearby stations

  
Tides and Currents Weather Stations Pressure Air Temp Water Temp Dewpoint Dewpoint Depression Visibility Wind Speed Wind Dir Waves Ship Positions
date/time (UTC)wind fromknots sea level pressurealtimeterstation pressurevisibilityair tempwater tempwave heightnotes
2016-Sep-30 00:50 293 25.0
2016-Sep-30 00:35 330 25.0
2016-Sep-30 00:20 288 0 gusting 6 25.6
2016-Sep-30 00:05 020 1 gusting 4 26.1
2016-Sep-29 23:50 304 26.1
2016-Sep-29 23:36 304 26.1
2016-Sep-29 23:20 303 26.1
2016-Sep-29 23:06 295 26.1
2016-Sep-29 22:51 352 26.7
2016-Sep-29 22:36 314 0 gusting 5 26.7
2016-Sep-29 22:20 321 27.8
2016-Sep-29 22:05 154 28.3
2016-Sep-29 21:49 243 28.9
2016-Sep-29 21:34 308 28.9
2016-Sep-29 21:20 091 28.9
2016-Sep-29 21:04 015 0 gusting 2 28.9
2016-Sep-29 20:48 039 0 gusting 4 29.4
2016-Sep-29 20:33 016 2 gusting 4 29.4
2016-Sep-29 20:18 011 1 gusting 4 29.4
2016-Sep-29 20:03 044 1 gusting 4 29.4
2016-Sep-29 19:48 348 2 gusting 6 28.9
2016-Sep-29 19:33 309 28.9
2016-Sep-29 19:18 060 0 gusting 2 28.9
2016-Sep-29 19:03 348 0 gusting 3 28.9
2016-Sep-29 18:48 124 0 gusting 3 28.9
2016-Sep-29 18:33 018 0 gusting 2 28.3
2016-Sep-29 18:18 108 0 gusting 3 27.8
2016-Sep-29 18:03 101 1 gusting 6 27.8
2016-Sep-29 17:48 063 1 gusting 4 27.8
2016-Sep-29 17:33 165 0 gusting 3 27.8
2016-Sep-29 17:18 150 0 gusting 3 27.2
2016-Sep-29 17:03 169 0 gusting 1 27.2
2016-Sep-29 16:48 200 1 gusting 5 26.7
2016-Sep-29 16:33 165 0 gusting 3 26.7
2016-Sep-29 16:18 179 26.7
2016-Sep-29 16:03 166 26.7
2016-Sep-29 15:48 125 1 gusting 3 26.1
2016-Sep-29 15:33 145 3 gusting 6 26.1
2016-Sep-29 15:18 110 3 gusting 6 26.1
2016-Sep-29 15:03 104 3 gusting 8 25.6
2016-Sep-29 14:47 079 5 gusting 10 26.1
2016-Sep-29 14:33 105 3 gusting 6 25.6
2016-Sep-29 14:17 123 2 gusting 13 26.1
2016-Sep-29 14:03 288 1 gusting 3 26.1
2016-Sep-29 13:47 226 0 gusting 2 26.1
2016-Sep-29 13:32 171 26.1
2016-Sep-29 13:17 170 25.6
2016-Sep-29 13:02 171 25.6
2016-Sep-29 12:47 170 0 gusting 1 25.6
2016-Sep-29 12:32 011 25.6
2016-Sep-29 12:17 078 1 gusting 13 26.1
2016-Sep-29 12:02 018 0 gusting 2 26.7
2016-Sep-29 11:47 015 0 gusting 2 26.7
2016-Sep-29 11:32 029 0 gusting 1 26.1
2016-Sep-29 11:17 036 26.1
2016-Sep-29 11:01 349 1 gusting 4 26.1
2016-Sep-29 10:46 036 2 gusting 4 26.1
2016-Sep-29 10:30 019 1 gusting 5 26.1
2016-Sep-29 10:15 060 1 gusting 6 26.1
2016-Sep-29 10:00 051 1 gusting 7 25.6
2016-Sep-29 09:45 070 5 gusting 13 25.0
2016-Sep-29 09:30 079 6 gusting 12 26.7
2016-Sep-29 09:15 001 9 gusting 22 27.8
2016-Sep-29 09:00 020 6 gusting 11 27.8
2016-Sep-29 08:45 027 5 gusting 10 27.8
2016-Sep-29 08:30 351 2 gusting 8 27.2
2016-Sep-29 08:15 340 4 gusting 10 27.2
2016-Sep-29 08:00 338 6 gusting 11 27.8
2016-Sep-29 07:45 033 6 gusting 11 27.8
2016-Sep-29 07:30 356 0 gusting 3 28.3
2016-Sep-29 07:15 030 2 gusting 5 28.3
2016-Sep-29 07:00 321 2 gusting 6 28.3
2016-Sep-29 06:45 001 0 gusting 3 28.3
2016-Sep-29 06:30 073 1 gusting 6 28.3
2016-Sep-29 06:15 131 3 gusting 7 28.9
2016-Sep-29 06:00 086 2 gusting 4 28.9
2016-Sep-29 05:45 037 1 gusting 5 28.9
2016-Sep-29 05:30 064 3 gusting 7 28.9
2016-Sep-29 05:14 005 5 gusting 7 28.9
2016-Sep-29 04:59 034 3 gusting 10 28.9
2016-Sep-29 04:44 054 4 gusting 11 28.9
2016-Sep-29 04:29 046 4 gusting 9 28.9
2016-Sep-29 04:14 054 3 gusting 8 28.9
2016-Sep-29 03:59 060 4 gusting 7 28.9
2016-Sep-29 03:44 053 5 gusting 9 28.9
2016-Sep-29 03:29 037 5 gusting 10 28.9
2016-Sep-29 03:14 065 5 gusting 13 28.9
2016-Sep-29 02:59 039 4 gusting 10 28.9
2016-Sep-29 02:44 103 5 gusting 11 28.9
2016-Sep-29 02:29 090 4 gusting 10 28.9
2016-Sep-29 02:15 095 4 gusting 10 28.9
2016-Sep-29 01:59 014 5 gusting 10 28.9
2016-Sep-29 01:44 049 6 gusting 10 28.9
2016-Sep-29 01:29 071 3 gusting 7 28.9
2016-Sep-29 01:14 037 4 gusting 9 28.9
2016-Sep-29 00:59 079 5 gusting 11 28.9
2016-Sep-29 00:44 089 2 gusting 7 28.9
2016-Sep-29 00:29 072 5 gusting 11 28.9
2016-Sep-29 00:14 050 6 gusting 11 28.9
2016-Sep-28 23:59 100 6 gusting 11 28.9
2016-Sep-28 23:44 078 5 gusting 9 28.9
2016-Sep-28 23:30 066 6 gusting 12 28.9
2016-Sep-28 23:14 057 6 gusting 11 28.9
2016-Sep-28 22:59 072 6 gusting 13 29.4
2016-Sep-28 22:44 039 5 gusting 9 29.4
2016-Sep-28 22:29 073 6 gusting 12 29.4
2016-Sep-28 22:14 057 6 gusting 14 29.4
2016-Sep-28 21:59 071 4 gusting 9 30.0
2016-Sep-28 21:44 051 6 gusting 10 30.0
2016-Sep-28 21:29 082 6 gusting 12 30.0
2016-Sep-28 21:14 100 6 gusting 13 30.0
2016-Sep-28 20:59 077 6 gusting 13 30.6
2016-Sep-28 20:44 070 6 gusting 12 30.6
2016-Sep-28 20:29 068 6 gusting 13 30.6
2016-Sep-28 20:14 060 9 gusting 13 30.6
2016-Sep-28 19:59 078 7 gusting 14 30.6
2016-Sep-28 19:44 049 7 gusting 13 30.6
2016-Sep-28 19:29 068 8 gusting 12 31.1
2016-Sep-28 19:14 077 6 gusting 13 31.1
2016-Sep-28 18:59 055 8 gusting 15 31.1
2016-Sep-28 18:44 086 9 gusting 15 31.1
2016-Sep-28 18:29 057 9 gusting 17 31.1
2016-Sep-28 18:14 096 9 gusting 14 31.7
2016-Sep-28 17:59 093 8 gusting 14 31.7
2016-Sep-28 17:44 085 10 gusting 16 31.7
2016-Sep-28 17:29 064 10 gusting 15 31.7
2016-Sep-28 17:14 071 9 gusting 15 31.7
2016-Sep-28 16:59 079 10 gusting 19 31.7
2016-Sep-28 16:44 082 9 gusting 15 31.7
2016-Sep-28 16:29 094 11 gusting 19 31.1
2016-Sep-28 16:14 105 12 gusting 17 31.1
2016-Sep-28 15:59 120 10 gusting 18 30.6
2016-Sep-28 15:44 108 10 gusting 16 31.1
2016-Sep-28 15:29 054 8 gusting 18 31.1
2016-Sep-28 15:14 099 7 gusting 17 31.1
2016-Sep-28 14:59 093 7 gusting 16 31.1
2016-Sep-28 14:44 060 8 gusting 14 30.6
2016-Sep-28 14:28 092 8 gusting 14 30.6
2016-Sep-28 14:13 092 8 gusting 14 31.1
2016-Sep-28 13:58 105 8 gusting 16 30.0
2016-Sep-28 13:43 103 8 gusting 18 30.0
2016-Sep-28 13:28 108 7 gusting 13 30.0
2016-Sep-28 13:14 051 7 gusting 19 30.0
2016-Sep-28 12:58 093 6 gusting 16 30.0
2016-Sep-28 12:43 104 9 gusting 20 30.0
2016-Sep-28 12:28 120 10 gusting 14 30.0
2016-Sep-28 12:13 114 9 gusting 13 29.4
2016-Sep-28 11:58 086 9 gusting 18 29.4
2016-Sep-28 11:43 060 7 gusting 14 28.9
2016-Sep-28 11:28 091 7 gusting 14 28.9
2016-Sep-28 11:13 109 6 gusting 10 28.3
2016-Sep-28 10:58 075 7 gusting 13 28.3
2016-Sep-28 10:43 105 6 gusting 10 28.3
2016-Sep-28 10:28 075 6 gusting 10 28.3
2016-Sep-28 10:13 105 6 gusting 15 28.3
2016-Sep-28 09:58 107 9 gusting 12 28.3
2016-Sep-28 09:43 095 6 gusting 12 28.3
2016-Sep-28 09:28 068 6 gusting 11 28.3
2016-Sep-28 09:13 106 4 gusting 14 28.3
2016-Sep-28 08:58 088 5 gusting 9 28.3
2016-Sep-28 08:43 120 5 gusting 9 28.3
2016-Sep-28 08:28 117 6 gusting 11 28.3
2016-Sep-28 08:13 104 6 gusting 12 28.3
2016-Sep-28 07:58 088 6 gusting 13 28.3
2016-Sep-28 07:43 077 6 gusting 13 28.3
2016-Sep-28 07:28 072 6 gusting 14 28.3
2016-Sep-28 07:13 101 5 gusting 10 28.3
2016-Sep-28 06:58 082 7 gusting 13 28.3
2016-Sep-28 06:43 110 7 gusting 13 28.3
2016-Sep-28 06:27 090 5 gusting 11 28.3
2016-Sep-28 06:13 097 6 gusting 13 28.3
2016-Sep-28 05:57 051 6 gusting 12 28.3
2016-Sep-28 05:42 092 7 gusting 13 28.3
2016-Sep-28 05:27 113 5 gusting 15 28.3
2016-Sep-28 05:12 077 8 gusting 13 28.3
2016-Sep-28 04:58 086 6 gusting 13 28.3
2016-Sep-28 04:42 086 7 gusting 13 28.3
2016-Sep-28 04:27 079 6 gusting 13 28.9
2016-Sep-28 04:12 079 6 gusting 14 28.9
2016-Sep-28 03:57 099 7 gusting 13 28.9
2016-Sep-28 03:42 100 9 gusting 14 28.9
2016-Sep-28 03:27 110 9 gusting 14 28.9
2016-Sep-28 03:12 129 6 gusting 12 28.9
2016-Sep-28 02:57 077 8 gusting 13 28.9
2016-Sep-28 02:42 093 6 gusting 16 28.9
2016-Sep-28 02:27 110 7 gusting 14 28.9
2016-Sep-28 02:12 099 6 gusting 17 28.9
2016-Sep-28 01:57 072 8 gusting 15 28.9
2016-Sep-28 01:42 077 8 gusting 13 28.9
2016-Sep-28 01:27 090 10 gusting 16 28.3
2016-Sep-28 01:12 064 7 gusting 14 28.9